sensor_id;sensor_type;location;lat;lon;timestamp;P1;durP1;ratioP1;P2;durP2;ratioP2
6832;SDS011;3454;42.654;23.378;2023-12-29T00:01:31;15.30;;;8.87;;
6832;SDS011;3454;42.654;23.378;2023-12-29T00:03:57;16.90;;;9.47;;
6832;SDS011;3454;42.654;23.378;2023-12-29T00:06:22;18.20;;;9.70;;
6832;SDS011;3454;42.654;23.378;2023-12-29T00:08:48;16.17;;;8.93;;
6832;SDS011;3454;42.654;23.378;2023-12-29T00:11:19;17.00;;;9.57;;
6832;SDS011;3454;42.654;23.378;2023-12-29T00:13:46;15.30;;;8.87;;
6832;SDS011;3454;42.654;23.378;2023-12-29T00:16:12;17.93;;;9.70;;
6832;SDS011;3454;42.654;23.378;2023-12-29T00:18:38;17.87;;;9.00;;
6832;SDS011;3454;42.654;23.378;2023-12-29T00:21:04;19.43;;;11.37;;
6832;SDS011;3454;42.654;23.378;2023-12-29T00:23:30;19.17;;;10.70;;
6832;SDS011;3454;42.654;23.378;2023-12-29T00:25:56;22.53;;;12.30;;
6832;SDS011;3454;42.654;23.378;2023-12-29T00:28:22;21.07;;;11.90;;
6832;SDS011;3454;42.654;23.378;2023-12-29T00:30:48;21.57;;;12.37;;
6832;SDS011;3454;42.654;23.378;2023-12-29T00:33:13;20.70;;;11.27;;
6832;SDS011;3454;42.654;23.378;2023-12-29T00:35:39;18.30;;;10.90;;
6832;SDS011;3454;42.654;23.378;2023-12-29T00:38:05;20.30;;;11.73;;
6832;SDS011;3454;42.654;23.378;2023-12-29T00:40:31;18.37;;;11.30;;
6832;SDS011;3454;42.654;23.378;2023-12-29T00:42:57;20.00;;;11.10;;
6832;SDS011;3454;42.654;23.378;2023-12-29T00:45:22;19.40;;;10.20;;
6832;SDS011;3454;42.654;23.378;2023-12-29T00:47:48;19.27;;;10.17;;
6832;SDS011;3454;42.654;23.378;2023-12-29T00:50:16;22.60;;;11.17;;
6832;SDS011;3454;42.654;23.378;2023-12-29T00:52:41;20.80;;;11.03;;
6832;SDS011;3454;42.654;23.378;2023-12-29T00:55:07;18.57;;;10.10;;
6832;SDS011;3454;42.654;23.378;2023-12-29T00:57:33;16.87;;;9.70;;
6832;SDS011;3454;42.654;23.378;2023-12-29T00:59:59;22.83;;;10.20;;
6832;SDS011;3454;42.654;23.378;2023-12-29T01:02:26;15.80;;;9.57;;
6832;SDS011;3454;42.654;23.378;2023-12-29T01:04:51;14.57;;;9.57;;
6832;SDS011;3454;42.654;23.378;2023-12-29T01:07:17;15.83;;;9.57;;
6832;SDS011;3454;42.654;23.378;2023-12-29T01:09:42;18.83;;;9.80;;
6832;SDS011;3454;42.654;23.378;2023-12-29T01:12:08;16.43;;;9.23;;
6832;SDS011;3454;42.654;23.378;2023-12-29T01:14:34;20.50;;;10.37;;
6832;SDS011;3454;42.654;23.378;2023-12-29T01:16:59;15.13;;;9.47;;
6832;SDS011;3454;42.654;23.378;2023-12-29T01:19:25;19.93;;;9.17;;
6832;SDS011;3454;42.654;23.378;2023-12-29T01:21:51;17.73;;;9.83;;
6832;SDS011;3454;42.654;23.378;2023-12-29T01:24:16;18.50;;;10.27;;
6832;SDS011;3454;42.654;23.378;2023-12-29T01:26:41;15.83;;;9.87;;
6832;SDS011;3454;42.654;23.378;2023-12-29T01:29:08;18.10;;;9.80;;
6832;SDS011;3454;42.654;23.378;2023-12-29T01:31:33;16.13;;;9.33;;
6832;SDS011;3454;42.654;23.378;2023-12-29T01:33:59;19.83;;;10.03;;
6832;SDS011;3454;42.654;23.378;2023-12-29T01:36:25;20.03;;;10.27;;
6832;SDS011;3454;42.654;23.378;2023-12-29T01:38:50;16.60;;;8.97;;
6832;SDS011;3454;42.654;23.378;2023-12-29T01:41:17;16.57;;;9.57;;
6832;SDS011;3454;42.654;23.378;2023-12-29T01:46:26;15.73;;;8.80;;
6832;SDS011;3454;42.654;23.378;2023-12-29T01:49:00;15.67;;;9.20;;
6832;SDS011;3454;42.654;23.378;2023-12-29T01:51:26;15.00;;;8.63;;
6832;SDS011;3454;42.654;23.378;2023-12-29T01:53:54;18.63;;;10.83;;
6832;SDS011;3454;42.654;23.378;2023-12-29T01:56:21;17.77;;;9.97;;
6832;SDS011;3454;42.654;23.378;2023-12-29T01:58:48;17.23;;;10.33;;
6832;SDS011;3454;42.654;23.378;2023-12-29T02:01:15;18.27;;;9.37;;
6832;SDS011;3454;42.654;23.378;2023-12-29T02:03:43;19.23;;;11.60;;
6832;SDS011;3454;42.654;23.378;2023-12-29T02:06:09;23.67;;;12.80;;
6832;SDS011;3454;42.654;23.378;2023-12-29T02:08:38;20.37;;;11.87;;
6832;SDS011;3454;42.654;23.378;2023-12-29T02:11:06;19.57;;;11.27;;
6832;SDS011;3454;42.654;23.378;2023-12-29T02:13:32;19.60;;;10.50;;
6832;SDS011;3454;42.654;23.378;2023-12-29T02:16:00;20.77;;;11.13;;
6832;SDS011;3454;42.654;23.378;2023-12-29T02:18:34;19.70;;;10.63;;
6832;SDS011;3454;42.654;23.378;2023-12-29T02:21:02;16.77;;;10.67;;
6832;SDS011;3454;42.654;23.378;2023-12-29T02:23:28;19.90;;;10.43;;
6832;SDS011;3454;42.654;23.378;2023-12-29T02:25:55;19.37;;;10.43;;
6832;SDS011;3454;42.654;23.378;2023-12-29T02:28:26;18.10;;;10.23;;
6832;SDS011;3454;42.654;23.378;2023-12-29T02:31:06;20.10;;;10.43;;
6832;SDS011;3454;42.654;23.378;2023-12-29T02:33:36;18.93;;;11.30;;
6832;SDS011;3454;42.654;23.378;2023-12-29T02:36:05;16.73;;;9.60;;
6832;SDS011;3454;42.654;23.378;2023-12-29T02:38:32;15.03;;;9.77;;
6832;SDS011;3454;42.654;23.378;2023-12-29T02:40:58;14.53;;;8.30;;
6832;SDS011;3454;42.654;23.378;2023-12-29T02:43:24;14.43;;;8.27;;
6832;SDS011;3454;42.654;23.378;2023-12-29T02:45:50;19.50;;;8.73;;
6832;SDS011;3454;42.654;23.378;2023-12-29T02:48:16;14.13;;;8.43;;
6832;SDS011;3454;42.654;23.378;2023-12-29T02:50:42;16.60;;;8.60;;
6832;SDS011;3454;42.654;23.378;2023-12-29T02:53:08;14.97;;;9.70;;
6832;SDS011;3454;42.654;23.378;2023-12-29T02:55:34;19.00;;;10.87;;
6832;SDS011;3454;42.654;23.378;2023-12-29T02:57:59;13.70;;;9.27;;
6832;SDS011;3454;42.654;23.378;2023-12-29T03:00:25;17.90;;;10.17;;
6832;SDS011;3454;42.654;23.378;2023-12-29T03:02:50;17.67;;;10.63;;
6832;SDS011;3454;42.654;23.378;2023-12-29T03:05:16;27.07;;;12.87;;
6832;SDS011;3454;42.654;23.378;2023-12-29T03:07:41;20.40;;;12.00;;
6832;SDS011;3454;42.654;23.378;2023-12-29T03:10:07;24.07;;;12.43;;
6832;SDS011;3454;42.654;23.378;2023-12-29T03:12:33;23.00;;;11.90;;
6832;SDS011;3454;42.654;23.378;2023-12-29T03:14:59;16.10;;;9.80;;
6832;SDS011;3454;42.654;23.378;2023-12-29T03:17:24;21.77;;;10.63;;
6832;SDS011;3454;42.654;23.378;2023-12-29T03:19:50;18.20;;;10.40;;
6832;SDS011;3454;42.654;23.378;2023-12-29T03:22:15;18.87;;;12.63;;
6832;SDS011;3454;42.654;23.378;2023-12-29T03:24:41;22.00;;;13.20;;
6832;SDS011;3454;42.654;23.378;2023-12-29T03:27:07;31.47;;;17.30;;
6832;SDS011;3454;42.654;23.378;2023-12-29T03:29:33;30.77;;;16.43;;
6832;SDS011;3454;42.654;23.378;2023-12-29T03:31:59;24.37;;;16.30;;
6832;SDS011;3454;42.654;23.378;2023-12-29T03:34:24;26.73;;;15.23;;
6832;SDS011;3454;42.654;23.378;2023-12-29T03:36:50;28.43;;;15.53;;
6832;SDS011;3454;42.654;23.378;2023-12-29T03:39:16;24.87;;;14.27;;
6832;SDS011;3454;42.654;23.378;2023-12-29T03:41:41;23.80;;;14.37;;
6832;SDS011;3454;42.654;23.378;2023-12-29T03:44:07;20.10;;;11.90;;
6832;SDS011;3454;42.654;23.378;2023-12-29T03:46:32;20.50;;;11.70;;
6832;SDS011;3454;42.654;23.378;2023-12-29T03:48:58;22.97;;;12.37;;
6832;SDS011;3454;42.654;23.378;2023-12-29T03:51:24;23.73;;;13.17;;
6832;SDS011;3454;42.654;23.378;2023-12-29T03:53:49;25.53;;;12.53;;
6832;SDS011;3454;42.654;23.378;2023-12-29T03:56:15;26.10;;;14.43;;
6832;SDS011;3454;42.654;23.378;2023-12-29T03:58:43;24.23;;;15.13;;
6832;SDS011;3454;42.654;23.378;2023-12-29T04:01:15;28.77;;;15.50;;
6832;SDS011;3454;42.654;23.378;2023-12-29T04:03:42;24.63;;;14.53;;
6832;SDS011;3454;42.654;23.378;2023-12-29T04:06:08;26.10;;;14.00;;
6832;SDS011;3454;42.654;23.378;2023-12-29T04:08:34;22.33;;;14.03;;
6832;SDS011;3454;42.654;23.378;2023-12-29T04:11:01;24.37;;;13.57;;
6832;SDS011;3454;42.654;23.378;2023-12-29T04:13:28;27.10;;;13.33;;
6832;SDS011;3454;42.654;23.378;2023-12-29T04:15:54;21.30;;;12.13;;
6832;SDS011;3454;42.654;23.378;2023-12-29T04:18:20;21.73;;;11.23;;
6832;SDS011;3454;42.654;23.378;2023-12-29T04:20:46;23.43;;;11.87;;
6832;SDS011;3454;42.654;23.378;2023-12-29T04:23:12;20.33;;;11.60;;
6832;SDS011;3454;42.654;23.378;2023-12-29T04:25:37;22.53;;;11.20;;
6832;SDS011;3454;42.654;23.378;2023-12-29T04:28:03;19.30;;;11.83;;
6832;SDS011;3454;42.654;23.378;2023-12-29T04:30:29;21.10;;;11.33;;
6832;SDS011;3454;42.654;23.378;2023-12-29T04:32:55;19.50;;;11.70;;
6832;SDS011;3454;42.654;23.378;2023-12-29T04:35:20;23.33;;;13.43;;
6832;SDS011;3454;42.654;23.378;2023-12-29T04:37:46;23.33;;;12.77;;
6832;SDS011;3454;42.654;23.378;2023-12-29T04:40:12;21.27;;;12.30;;
6832;SDS011;3454;42.654;23.378;2023-12-29T04:42:38;25.17;;;11.57;;
6832;SDS011;3454;42.654;23.378;2023-12-29T04:45:04;20.20;;;12.47;;
6832;SDS011;3454;42.654;23.378;2023-12-29T04:47:30;19.43;;;11.97;;
6832;SDS011;3454;42.654;23.378;2023-12-29T04:49:56;20.57;;;11.87;;
6832;SDS011;3454;42.654;23.378;2023-12-29T04:52:22;20.93;;;13.10;;
6832;SDS011;3454;42.654;23.378;2023-12-29T04:54:48;23.87;;;13.80;;
6832;SDS011;3454;42.654;23.378;2023-12-29T04:57:13;26.63;;;15.77;;
6832;SDS011;3454;42.654;23.378;2023-12-29T04:59:39;29.73;;;18.23;;
6832;SDS011;3454;42.654;23.378;2023-12-29T05:02:05;29.77;;;18.03;;
6832;SDS011;3454;42.654;23.378;2023-12-29T05:04:30;31.43;;;17.23;;
6832;SDS011;3454;42.654;23.378;2023-12-29T05:06:57;26.23;;;15.13;;
6832;SDS011;3454;42.654;23.378;2023-12-29T05:09:23;23.93;;;15.20;;
6832;SDS011;3454;42.654;23.378;2023-12-29T05:11:48;24.33;;;14.60;;
6832;SDS011;3454;42.654;23.378;2023-12-29T05:14:14;29.57;;;17.23;;
6832;SDS011;3454;42.654;23.378;2023-12-29T05:16:42;30.50;;;17.73;;
6832;SDS011;3454;42.654;23.378;2023-12-29T05:19:09;30.47;;;16.90;;
6832;SDS011;3454;42.654;23.378;2023-12-29T05:21:35;26.47;;;15.00;;
6832;SDS011;3454;42.654;23.378;2023-12-29T05:24:01;20.17;;;11.90;;
6832;SDS011;3454;42.654;23.378;2023-12-29T05:26:27;20.17;;;11.83;;
6832;SDS011;3454;42.654;23.378;2023-12-29T05:28:52;23.03;;;13.13;;
6832;SDS011;3454;42.654;23.378;2023-12-29T05:31:18;22.43;;;13.40;;
6832;SDS011;3454;42.654;23.378;2023-12-29T05:33:46;26.40;;;14.80;;
6832;SDS011;3454;42.654;23.378;2023-12-29T05:36:12;25.03;;;15.20;;
6832;SDS011;3454;42.654;23.378;2023-12-29T05:38:45;25.70;;;15.03;;
6832;SDS011;3454;42.654;23.378;2023-12-29T05:41:14;30.77;;;19.30;;
6832;SDS011;3454;42.654;23.378;2023-12-29T05:43:40;32.50;;;19.50;;
6832;SDS011;3454;42.654;23.378;2023-12-29T05:46:09;33.43;;;19.13;;
6832;SDS011;3454;42.654;23.378;2023-12-29T05:48:36;43.27;;;22.37;;
6832;SDS011;3454;42.654;23.378;2023-12-29T05:51:08;40.57;;;21.97;;
6832;SDS011;3454;42.654;23.378;2023-12-29T05:53:41;39.80;;;22.53;;
6832;SDS011;3454;42.654;23.378;2023-12-29T05:56:07;44.20;;;24.60;;
6832;SDS011;3454;42.654;23.378;2023-12-29T05:58:33;39.73;;;21.73;;
6832;SDS011;3454;42.654;23.378;2023-12-29T06:00:58;42.10;;;24.53;;
6832;SDS011;3454;42.654;23.378;2023-12-29T06:03:30;44.27;;;22.57;;
6832;SDS011;3454;42.654;23.378;2023-12-29T06:05:56;26.60;;;16.27;;
6832;SDS011;3454;42.654;23.378;2023-12-29T06:08:21;24.00;;;14.60;;
6832;SDS011;3454;42.654;23.378;2023-12-29T06:10:47;20.23;;;12.47;;
6832;SDS011;3454;42.654;23.378;2023-12-29T06:13:13;24.67;;;11.67;;
6832;SDS011;3454;42.654;23.378;2023-12-29T06:15:38;29.30;;;14.00;;
6832;SDS011;3454;42.654;23.378;2023-12-29T06:18:04;27.83;;;16.00;;
6832;SDS011;3454;42.654;23.378;2023-12-29T06:20:30;26.00;;;15.67;;
6832;SDS011;3454;42.654;23.378;2023-12-29T06:22:56;29.97;;;15.27;;
6832;SDS011;3454;42.654;23.378;2023-12-29T06:25:21;30.97;;;15.97;;
6832;SDS011;3454;42.654;23.378;2023-12-29T06:27:47;31.70;;;18.27;;
6832;SDS011;3454;42.654;23.378;2023-12-29T06:30:13;27.80;;;15.60;;
6832;SDS011;3454;42.654;23.378;2023-12-29T06:32:39;34.83;;;17.23;;
6832;SDS011;3454;42.654;23.378;2023-12-29T06:35:05;30.90;;;16.43;;
6832;SDS011;3454;42.654;23.378;2023-12-29T06:37:31;38.27;;;17.93;;
6832;SDS011;3454;42.654;23.378;2023-12-29T06:39:57;30.47;;;17.73;;
6832;SDS011;3454;42.654;23.378;2023-12-29T06:42:22;28.30;;;16.03;;
6832;SDS011;3454;42.654;23.378;2023-12-29T06:44:48;42.23;;;22.53;;
6832;SDS011;3454;42.654;23.378;2023-12-29T06:47:14;45.90;;;24.00;;
6832;SDS011;3454;42.654;23.378;2023-12-29T06:49:39;26.77;;;16.23;;
6832;SDS011;3454;42.654;23.378;2023-12-29T06:52:06;34.47;;;20.57;;
6832;SDS011;3454;42.654;23.378;2023-12-29T06:54:31;29.50;;;17.03;;
6832;SDS011;3454;42.654;23.378;2023-12-29T06:56:58;28.93;;;15.07;;
6832;SDS011;3454;42.654;23.378;2023-12-29T06:59:24;26.63;;;16.13;;
6832;SDS011;3454;42.654;23.378;2023-12-29T07:01:49;33.87;;;18.90;;
6832;SDS011;3454;42.654;23.378;2023-12-29T07:04:15;47.07;;;20.60;;
6832;SDS011;3454;42.654;23.378;2023-12-29T07:06:41;37.33;;;19.97;;
6832;SDS011;3454;42.654;23.378;2023-12-29T07:09:08;32.20;;;18.40;;
6832;SDS011;3454;42.654;23.378;2023-12-29T07:11:34;39.47;;;20.33;;
6832;SDS011;3454;42.654;23.378;2023-12-29T07:14:00;31.43;;;18.03;;
6832;SDS011;3454;42.654;23.378;2023-12-29T07:16:26;32.93;;;17.93;;
6832;SDS011;3454;42.654;23.378;2023-12-29T07:18:52;31.10;;;17.80;;
6832;SDS011;3454;42.654;23.378;2023-12-29T07:21:17;29.17;;;16.67;;
6832;SDS011;3454;42.654;23.378;2023-12-29T07:23:43;30.53;;;18.07;;
6832;SDS011;3454;42.654;23.378;2023-12-29T07:26:09;30.50;;;17.20;;
6832;SDS011;3454;42.654;23.378;2023-12-29T07:28:34;50.73;;;22.60;;
6832;SDS011;3454;42.654;23.378;2023-12-29T07:31:00;37.33;;;22.60;;
6832;SDS011;3454;42.654;23.378;2023-12-29T07:33:26;43.90;;;22.70;;
6832;SDS011;3454;42.654;23.378;2023-12-29T07:35:52;29.17;;;17.33;;
6832;SDS011;3454;42.654;23.378;2023-12-29T07:38:17;31.37;;;18.33;;
6832;SDS011;3454;42.654;23.378;2023-12-29T07:40:43;33.00;;;17.87;;
6832;SDS011;3454;42.654;23.378;2023-12-29T07:43:09;32.00;;;18.00;;
6832;SDS011;3454;42.654;23.378;2023-12-29T07:45:34;32.07;;;20.17;;
6832;SDS011;3454;42.654;23.378;2023-12-29T07:48:03;38.90;;;20.30;;
6832;SDS011;3454;42.654;23.378;2023-12-29T07:50:28;38.87;;;21.83;;
6832;SDS011;3454;42.654;23.378;2023-12-29T07:52:54;42.93;;;23.73;;
6832;SDS011;3454;42.654;23.378;2023-12-29T07:55:20;45.80;;;24.20;;
6832;SDS011;3454;42.654;23.378;2023-12-29T07:57:45;37.17;;;22.13;;
6832;SDS011;3454;42.654;23.378;2023-12-29T08:00:12;37.57;;;22.97;;
6832;SDS011;3454;42.654;23.378;2023-12-29T08:02:39;38.53;;;22.53;;
6832;SDS011;3454;42.654;23.378;2023-12-29T08:05:05;40.93;;;24.90;;
6832;SDS011;3454;42.654;23.378;2023-12-29T08:07:33;39.10;;;25.73;;
6832;SDS011;3454;42.654;23.378;2023-12-29T08:10:00;51.50;;;28.03;;
6832;SDS011;3454;42.654;23.378;2023-12-29T08:12:26;43.70;;;28.30;;
6832;SDS011;3454;42.654;23.378;2023-12-29T08:14:53;48.57;;;28.63;;
6832;SDS011;3454;42.654;23.378;2023-12-29T08:17:18;47.33;;;29.27;;
6832;SDS011;3454;42.654;23.378;2023-12-29T08:19:44;44.00;;;26.13;;
6832;SDS011;3454;42.654;23.378;2023-12-29T08:22:09;45.90;;;26.77;;
6832;SDS011;3454;42.654;23.378;2023-12-29T08:24:35;42.63;;;26.50;;
6832;SDS011;3454;42.654;23.378;2023-12-29T08:27:01;41.83;;;25.00;;
6832;SDS011;3454;42.654;23.378;2023-12-29T08:29:28;52.57;;;26.00;;
6832;SDS011;3454;42.654;23.378;2023-12-29T08:31:54;38.93;;;23.20;;
6832;SDS011;3454;42.654;23.378;2023-12-29T08:34:19;41.20;;;23.77;;
6832;SDS011;3454;42.654;23.378;2023-12-29T08:36:44;42.77;;;24.13;;
6832;SDS011;3454;42.654;23.378;2023-12-29T08:39:10;36.87;;;22.80;;
6832;SDS011;3454;42.654;23.378;2023-12-29T08:41:37;38.70;;;24.23;;
6832;SDS011;3454;42.654;23.378;2023-12-29T08:44:03;41.00;;;22.73;;
6832;SDS011;3454;42.654;23.378;2023-12-29T08:46:29;36.27;;;23.20;;
6832;SDS011;3454;42.654;23.378;2023-12-29T08:48:54;38.13;;;23.10;;
6832;SDS011;3454;42.654;23.378;2023-12-29T08:51:20;44.33;;;22.43;;
6832;SDS011;3454;42.654;23.378;2023-12-29T08:53:46;47.10;;;23.20;;
6832;SDS011;3454;42.654;23.378;2023-12-29T08:56:11;35.87;;;21.27;;
6832;SDS011;3454;42.654;23.378;2023-12-29T08:58:38;40.57;;;21.60;;
6832;SDS011;3454;42.654;23.378;2023-12-29T09:01:04;38.87;;;21.90;;
6832;SDS011;3454;42.654;23.378;2023-12-29T09:03:30;34.00;;;21.77;;
6832;SDS011;3454;42.654;23.378;2023-12-29T09:05:56;40.30;;;21.33;;
6832;SDS011;3454;42.654;23.378;2023-12-29T09:08:22;33.43;;;19.30;;
6832;SDS011;3454;42.654;23.378;2023-12-29T09:10:47;31.77;;;19.57;;
6832;SDS011;3454;42.654;23.378;2023-12-29T09:13:13;29.63;;;18.93;;
6832;SDS011;3454;42.654;23.378;2023-12-29T09:15:38;35.67;;;19.30;;
6832;SDS011;3454;42.654;23.378;2023-12-29T09:18:04;27.47;;;18.37;;
6832;SDS011;3454;42.654;23.378;2023-12-29T09:20:31;35.60;;;20.20;;
6832;SDS011;3454;42.654;23.378;2023-12-29T09:22:56;33.27;;;19.70;;
6832;SDS011;3454;42.654;23.378;2023-12-29T09:25:23;33.73;;;19.40;;
6832;SDS011;3454;42.654;23.378;2023-12-29T09:27:48;34.73;;;19.87;;
6832;SDS011;3454;42.654;23.378;2023-12-29T09:30:17;30.33;;;19.40;;
6832;SDS011;3454;42.654;23.378;2023-12-29T09:32:43;34.63;;;19.80;;
6832;SDS011;3454;42.654;23.378;2023-12-29T09:35:08;33.27;;;19.63;;
6832;SDS011;3454;42.654;23.378;2023-12-29T09:37:33;29.20;;;19.03;;
6832;SDS011;3454;42.654;23.378;2023-12-29T09:39:59;28.87;;;19.47;;
6832;SDS011;3454;42.654;23.378;2023-12-29T09:42:24;29.80;;;18.63;;
6832;SDS011;3454;42.654;23.378;2023-12-29T09:44:54;30.23;;;18.27;;
6832;SDS011;3454;42.654;23.378;2023-12-29T09:47:21;34.42;;;17.75;;
6832;SDS011;3454;42.654;23.378;2023-12-29T09:49:48;30.48;;;19.42;;
6832;SDS011;3454;42.654;23.378;2023-12-29T09:52:14;32.72;;;21.38;;
6832;SDS011;3454;42.654;23.378;2023-12-29T09:54:42;31.70;;;21.80;;
6832;SDS011;3454;42.654;23.378;2023-12-29T09:57:08;35.53;;;22.77;;
6832;SDS011;3454;42.654;23.378;2023-12-29T09:59:34;40.65;;;27.55;;
6832;SDS011;3454;42.654;23.378;2023-12-29T10:02:04;49.03;;;29.48;;
6832;SDS011;3454;42.654;23.378;2023-12-29T10:04:30;40.97;;;28.80;;
6832;SDS011;3454;42.654;23.378;2023-12-29T10:06:59;37.80;;;25.92;;
6832;SDS011;3454;42.654;23.378;2023-12-29T10:09:32;37.58;;;26.27;;
6832;SDS011;3454;42.654;23.378;2023-12-29T10:11:59;40.72;;;26.67;;
6832;SDS011;3454;42.654;23.378;2023-12-29T10:14:33;41.20;;;25.77;;
6832;SDS011;3454;42.654;23.378;2023-12-29T10:17:09;39.70;;;24.63;;
6832;SDS011;3454;42.654;23.378;2023-12-29T10:19:40;36.83;;;24.00;;
6832;SDS011;3454;42.654;23.378;2023-12-29T10:22:26;40.00;;;25.45;;
6832;SDS011;3454;42.654;23.378;2023-12-29T10:25:00;39.42;;;24.88;;
6832;SDS011;3454;42.654;23.378;2023-12-29T10:27:26;42.85;;;26.00;;
6832;SDS011;3454;42.654;23.378;2023-12-29T10:29:52;43.13;;;24.83;;
6832;SDS011;3454;42.654;23.378;2023-12-29T10:32:17;38.65;;;26.25;;
6832;SDS011;3454;42.654;23.378;2023-12-29T10:34:43;43.10;;;25.30;;
6832;SDS011;3454;42.654;23.378;2023-12-29T10:37:08;40.03;;;25.83;;
6832;SDS011;3454;42.654;23.378;2023-12-29T10:39:39;39.13;;;25.10;;
6832;SDS011;3454;42.654;23.378;2023-12-29T10:42:19;37.85;;;25.15;;
6832;SDS011;3454;42.654;23.378;2023-12-29T10:44:45;38.90;;;24.77;;
6832;SDS011;3454;42.654;23.378;2023-12-29T10:47:10;38.75;;;25.83;;
6832;SDS011;3454;42.654;23.378;2023-12-29T10:49:37;34.53;;;25.00;;
6832;SDS011;3454;42.654;23.378;2023-12-29T10:52:16;40.33;;;25.33;;
6832;SDS011;3454;42.654;23.378;2023-12-29T10:54:42;42.35;;;25.95;;
6832;SDS011;3454;42.654;23.378;2023-12-29T10:57:12;42.00;;;25.58;;
6832;SDS011;3454;42.654;23.378;2023-12-29T10:59:38;35.17;;;24.92;;
6832;SDS011;3454;42.654;23.378;2023-12-29T11:02:05;39.83;;;26.10;;
6832;SDS011;3454;42.654;23.378;2023-12-29T11:04:33;37.72;;;24.90;;
6832;SDS011;3454;42.654;23.378;2023-12-29T11:07:00;36.65;;;25.25;;
6832;SDS011;3454;42.654;23.378;2023-12-29T11:09:29;38.60;;;25.33;;
6832;SDS011;3454;42.654;23.378;2023-12-29T11:11:57;38.33;;;24.92;;
6832;SDS011;3454;42.654;23.378;2023-12-29T11:14:25;38.08;;;23.77;;
6832;SDS011;3454;42.654;23.378;2023-12-29T11:16:51;35.58;;;24.75;;
6832;SDS011;3454;42.654;23.378;2023-12-29T11:19:17;40.58;;;24.00;;
6832;SDS011;3454;42.654;23.378;2023-12-29T11:21:44;37.80;;;23.70;;
6832;SDS011;3454;42.654;23.378;2023-12-29T11:24:10;40.50;;;23.58;;
6832;SDS011;3454;42.654;23.378;2023-12-29T11:26:36;31.58;;;21.85;;
6832;SDS011;3454;42.654;23.378;2023-12-29T11:29:02;34.45;;;24.00;;
6832;SDS011;3454;42.654;23.378;2023-12-29T11:31:30;37.25;;;22.40;;
6832;SDS011;3454;42.654;23.378;2023-12-29T11:34:17;30.90;;;22.20;;
6832;SDS011;3454;42.654;23.378;2023-12-29T11:36:49;32.97;;;22.17;;
6832;SDS011;3454;42.654;23.378;2023-12-29T11:39:20;37.05;;;22.23;;
6832;SDS011;3454;42.654;23.378;2023-12-29T11:44:31;37.30;;;21.63;;
6832;SDS011;3454;42.654;23.378;2023-12-29T11:46:58;34.17;;;21.20;;
6832;SDS011;3454;42.654;23.378;2023-12-29T11:49:24;32.78;;;21.00;;
6832;SDS011;3454;42.654;23.378;2023-12-29T11:51:49;31.58;;;21.33;;
6832;SDS011;3454;42.654;23.378;2023-12-29T11:54:25;31.85;;;20.55;;
6832;SDS011;3454;42.654;23.378;2023-12-29T11:56:52;36.17;;;20.50;;
6832;SDS011;3454;42.654;23.378;2023-12-29T11:59:22;38.75;;;22.40;;
6832;SDS011;3454;42.654;23.378;2023-12-29T12:01:50;40.28;;;22.45;;
6832;SDS011;3454;42.654;23.378;2023-12-29T12:04:59;36.88;;;22.65;;
6832;SDS011;3454;42.654;23.378;2023-12-29T12:07:07;32.83;;;21.15;;
6832;SDS011;3454;42.654;23.378;2023-12-29T12:09:37;35.45;;;20.70;;
6832;SDS011;3454;42.654;23.378;2023-12-29T12:12:04;29.92;;;20.55;;
6832;SDS011;3454;42.654;23.378;2023-12-29T12:14:49;32.10;;;21.08;;
6832;SDS011;3454;42.654;23.378;2023-12-29T12:17:30;35.90;;;22.60;;
6832;SDS011;3454;42.654;23.378;2023-12-29T12:20:06;32.97;;;20.52;;
6832;SDS011;3454;42.654;23.378;2023-12-29T12:22:36;36.83;;;21.70;;
6832;SDS011;3454;42.654;23.378;2023-12-29T12:25:02;33.35;;;22.52;;
6832;SDS011;3454;42.654;23.378;2023-12-29T12:27:30;34.55;;;21.65;;
6832;SDS011;3454;42.654;23.378;2023-12-29T12:29:57;36.63;;;21.25;;
6832;SDS011;3454;42.654;23.378;2023-12-29T12:32:27;37.20;;;22.02;;
6832;SDS011;3454;42.654;23.378;2023-12-29T12:34:54;35.35;;;21.67;;
6832;SDS011;3454;42.654;23.378;2023-12-29T12:37:25;35.63;;;20.52;;
6832;SDS011;3454;42.654;23.378;2023-12-29T12:39:52;33.20;;;20.67;;
6832;SDS011;3454;42.654;23.378;2023-12-29T12:42:21;33.67;;;20.80;;
6832;SDS011;3454;42.654;23.378;2023-12-29T12:45:03;34.17;;;18.98;;
6832;SDS011;3454;42.654;23.378;2023-12-29T12:47:49;34.33;;;19.95;;
6832;SDS011;3454;42.654;23.378;2023-12-29T12:50:17;37.70;;;19.27;;
6832;SDS011;3454;42.654;23.378;2023-12-29T12:52:44;33.30;;;22.23;;
6832;SDS011;3454;42.654;23.378;2023-12-29T12:55:10;36.03;;;22.23;;
6832;SDS011;3454;42.654;23.378;2023-12-29T12:57:38;34.60;;;20.70;;
6832;SDS011;3454;42.654;23.378;2023-12-29T13:00:03;35.85;;;20.77;;
6832;SDS011;3454;42.654;23.378;2023-12-29T13:02:31;30.40;;;19.52;;
6832;SDS011;3454;42.654;23.378;2023-12-29T13:04:58;32.63;;;20.75;;
6832;SDS011;3454;42.654;23.378;2023-12-29T13:07:24;38.55;;;20.98;;
6832;SDS011;3454;42.654;23.378;2023-12-29T13:09:49;36.15;;;21.25;;
6832;SDS011;3454;42.654;23.378;2023-12-29T13:12:17;31.35;;;19.67;;
6832;SDS011;3454;42.654;23.378;2023-12-29T13:14:43;33.30;;;21.10;;
6832;SDS011;3454;42.654;23.378;2023-12-29T13:17:11;36.10;;;22.05;;
6832;SDS011;3454;42.654;23.378;2023-12-29T13:19:39;37.28;;;23.15;;
6832;SDS011;3454;42.654;23.378;2023-12-29T13:22:09;40.42;;;21.00;;
6832;SDS011;3454;42.654;23.378;2023-12-29T13:24:42;33.15;;;21.52;;
6832;SDS011;3454;42.654;23.378;2023-12-29T13:27:08;40.40;;;21.85;;
6832;SDS011;3454;42.654;23.378;2023-12-29T13:29:35;36.42;;;22.65;;
6832;SDS011;3454;42.654;23.378;2023-12-29T13:32:10;47.75;;;25.10;;
6832;SDS011;3454;42.654;23.378;2023-12-29T13:37:50;30.17;;;18.67;;
6832;SDS011;3454;42.654;23.378;2023-12-29T13:40:38;30.50;;;17.92;;
6832;SDS011;3454;42.654;23.378;2023-12-29T13:43:10;30.92;;;15.18;;
6832;SDS011;3454;42.654;23.378;2023-12-29T13:45:40;32.28;;;16.20;;
6832;SDS011;3454;42.654;23.378;2023-12-29T13:48:08;23.77;;;13.10;;
6832;SDS011;3454;42.654;23.378;2023-12-29T13:50:37;24.92;;;13.60;;
6832;SDS011;3454;42.654;23.378;2023-12-29T13:53:02;33.40;;;13.18;;
6832;SDS011;3454;42.654;23.378;2023-12-29T13:55:28;26.77;;;12.95;;
6832;SDS011;3454;42.654;23.378;2023-12-29T13:57:54;21.33;;;11.88;;
6832;SDS011;3454;42.654;23.378;2023-12-29T14:00:20;21.45;;;11.25;;
6832;SDS011;3454;42.654;23.378;2023-12-29T14:02:58;19.27;;;10.68;;
6832;SDS011;3454;42.654;23.378;2023-12-29T14:05:31;21.37;;;9.30;;
6832;SDS011;3454;42.654;23.378;2023-12-29T14:08:04;21.33;;;10.05;;
6832;SDS011;3454;42.654;23.378;2023-12-29T14:10:34;19.00;;;10.13;;
6832;SDS011;3454;42.654;23.378;2023-12-29T14:13:04;25.20;;;8.20;;
6832;SDS011;3454;42.654;23.378;2023-12-29T14:15:51;13.07;;;7.32;;
6832;SDS011;3454;42.654;23.378;2023-12-29T14:21:28;15.80;;;7.10;;
6832;SDS011;3454;42.654;23.378;2023-12-29T14:23:59;14.55;;;6.53;;
6832;SDS011;3454;42.654;23.378;2023-12-29T14:26:26;14.53;;;6.97;;
6832;SDS011;3454;42.654;23.378;2023-12-29T14:29:01;11.75;;;6.68;;
6832;SDS011;3454;42.654;23.378;2023-12-29T14:31:27;12.63;;;7.47;;
6832;SDS011;3454;42.654;23.378;2023-12-29T14:33:53;16.30;;;7.85;;
6832;SDS011;3454;42.654;23.378;2023-12-29T14:36:19;19.93;;;7.30;;
6832;SDS011;3454;42.654;23.378;2023-12-29T14:38:44;16.43;;;7.70;;
6832;SDS011;3454;42.654;23.378;2023-12-29T14:41:10;12.73;;;8.13;;
6832;SDS011;3454;42.654;23.378;2023-12-29T14:43:35;20.57;;;8.93;;
6832;SDS011;3454;42.654;23.378;2023-12-29T14:46:01;17.70;;;7.73;;
6832;SDS011;3454;42.654;23.378;2023-12-29T14:48:27;19.20;;;9.23;;